21kousinmaru — JD2168 — position and weather

sailwx.info

Track history (hours):
 
Tides and Currents Weather Stations Pressure Air Temp Water Temp Dewpoint Dewpoint Depression Visibility Wind Speed Wind Dir Waves Ship Positions

21kousinmaru

Last reported at 2015-Jan-28 08:33 UTC. Time now 2015-Jan-28 09:20 UTC.
Position N 33°37' E 130°22'.

Length 68 m; draft 4.5 m.

Type: Tanker. MMSI: 431501835.

Date/timePositionNaut miles runAvg speedWind from/ knotsBaromVisibWave heightAir tempDewpointWater temp
2015-Jan-28 08:33N 33°37' E 130°22'0 0.0
2015-Jan-28 07:22N 33°37' E 130°22'0 0.1
2015-Jan-28 06:31N 33°37' E 130°22'3 2.6
2015-Jan-28 05:33N 33°38' E 130°19'1211.8
2015-Jan-28 04:33N 33°38' E 130°05'5 0.2
2015-Jan-27 05:15N 33°40' E 130°11'811.7
2015-Jan-27 04:33N 33°38' E 130°20'4 3.8
2015-Jan-27 03:32N 33°37' E 130°25'0 0.0
2015-Jan-27 02:33N 33°37' E 130°25'0 0.0
2015-Jan-27 01:33N 33°37' E 130°25'3 1.1
2015-Jan-26 23:16N 33°37' E 130°22'0 0.0
2015-Jan-26 20:21N 33°37' E 130°22'0 0.0
2015-Jan-26 18:32N 33°37' E 130°22'0 0.0
2015-Jan-26 17:19N 33°37' E 130°22'5 6.2
2015-Jan-26 16:33N 33°40' E 130°17'1211.5
2015-Jan-26 15:33N 33°50' E 130°24'  
2015-Jan-23 17:33N 34°38' E 134°59'9 9.0
2015-Jan-23 16:33N 34°29' E 135°04'1412.1
2015-Jan-23 15:22N 34°15' E 134°60'1012.4
2015-Jan-23 14:32N 34°07' E 135°08'1 0.1
2015-Jan-23 07:22N 34°08' E 135°07'3 0.9
2015-Jan-23 04:30N 34°09' E 135°09'0 0.0
2015-Jan-23 03:30N 34°09' E 135°09'10 9.0
2015-Jan-23 02:23N 34°19' E 135°04'1112.7
2015-Jan-23 01:33N 34°27' E 135°12'8 2.3
2015-Jan-22 22:17N 34°32' E 135°19'0 0.0
2015-Jan-22 21:33N 34°32' E 135°19'0 0.0
2015-Jan-22 20:23N 34°32' E 135°19'0 0.0
2015-Jan-22 19:21N 34°32' E 135°19'0 0.0
2015-Jan-22 16:29N 34°32' E 135°19'0 0.0
2015-Jan-22 15:17N 34°32' E 135°19'0 0.0
2015-Jan-22 14:21N 34°32' E 135°19'0 0.0
2015-Jan-22 10:06N 34°32' E 135°19'0 0.0
2015-Jan-22 09:04N 34°32' E 135°19'0 0.0
2015-Jan-22 08:32N 34°32' E 135°19'1 1.0
2015-Jan-22 07:33N 34°33' E 135°20'5 0.5
2015-Jan-21 22:50N 34°33' E 135°26'1 6.6
2015-Jan-21 22:45N 34°33' E 135°25'1 6.4
2015-Jan-21 22:33N 34°33' E 135°24'4 3.4
2015-Jan-21 21:28N 34°32' E 135°19'0 0.0
2015-Jan-21 19:18N 34°32' E 135°19'0 0.0
2015-Jan-21 18:20N 34°32' E 135°19'0 0.0
2015-Jan-21 17:31N 34°32' E 135°19'0 0.0
2015-Jan-21 16:08N 34°32' E 135°19'0 0.0
2015-Jan-21 09:33N 34°32' E 135°19'0 0.0
2015-Jan-21 08:23N 34°32' E 135°19'0 0.0
2015-Jan-21 07:27N 34°32' E 135°19'0 0.0
2015-Jan-21 06:33N 34°32' E 135°19'0 0.0
2015-Jan-21 05:16N 34°32' E 135°19'912.2
2015-Jan-21 04:33N 34°35' E 135°09'1513.2
2015-Jan-21 03:24N 34°38' E 134°51'232 6.6
2015-Jan-19 16:33N 35°03' E 139°32'1212.6
2015-Jan-19 15:33N 35°10' E 139°44'1111.5
2015-Jan-19 14:34N 35°21' E 139°42'  
Track history (hours):
 
Tides and Currents Weather Stations Pressure Air Temp Water Temp Dewpoint Dewpoint Depression Visibility Wind Speed Wind Dir Waves Ship Positions

21kousinmaru

Last reported at 2015-Jan-28 08:33 UTC. Time now 2015-Jan-28 09:20 UTC.
Position N 33°37' E 130°22'.

Length 68 m; draft 4.5 m.

Type: Tanker. MMSI: 431501835.

Date/timePositionNaut miles runAvg speedWind from/ knotsBaromVisibWave heightAir tempDewpointWater temp
2015-Jan-28 08:33N 33°37' E 130°22'0 0.0
2015-Jan-28 07:22N 33°37' E 130°22'0 0.1
2015-Jan-28 06:31N 33°37' E 130°22'3 2.6
2015-Jan-28 05:33N 33°38' E 130°19'1211.8
2015-Jan-28 04:33N 33°38' E 130°05'5 0.2
2015-Jan-27 05:15N 33°40' E 130°11'811.7
2015-Jan-27 04:33N 33°38' E 130°20'4 3.8
2015-Jan-27 03:32N 33°37' E 130°25'0 0.0
2015-Jan-27 02:33N 33°37' E 130°25'0 0.0
2015-Jan-27 01:33N 33°37' E 130°25'3 1.1
2015-Jan-26 23:16N 33°37' E 130°22'0 0.0
2015-Jan-26 20:21N 33°37' E 130°22'0 0.0
2015-Jan-26 18:32N 33°37' E 130°22'0 0.0
2015-Jan-26 17:19N 33°37' E 130°22'5 6.2
2015-Jan-26 16:33N 33°40' E 130°17'1211.5
2015-Jan-26 15:33N 33°50' E 130°24'  
2015-Jan-23 17:33N 34°38' E 134°59'9 9.0
2015-Jan-23 16:33N 34°29' E 135°04'1412.1
2015-Jan-23 15:22N 34°15' E 134°60'1012.4
2015-Jan-23 14:32N 34°07' E 135°08'1 0.1
2015-Jan-23 07:22N 34°08' E 135°07'3 0.9
2015-Jan-23 04:30N 34°09' E 135°09'0 0.0
2015-Jan-23 03:30N 34°09' E 135°09'10 9.0
2015-Jan-23 02:23N 34°19' E 135°04'1112.7
2015-Jan-23 01:33N 34°27' E 135°12'8 2.3
2015-Jan-22 22:17N 34°32' E 135°19'0 0.0
2015-Jan-22 21:33N 34°32' E 135°19'0 0.0
2015-Jan-22 20:23N 34°32' E 135°19'0 0.0
2015-Jan-22 19:21N 34°32' E 135°19'0 0.0
2015-Jan-22 16:29N 34°32' E 135°19'0 0.0
2015-Jan-22 15:17N 34°32' E 135°19'0 0.0
2015-Jan-22 14:21N 34°32' E 135°19'0 0.0
2015-Jan-22 10:06N 34°32' E 135°19'0 0.0
2015-Jan-22 09:04N 34°32' E 135°19'0 0.0
2015-Jan-22 08:32N 34°32' E 135°19'1 1.0
2015-Jan-22 07:33N 34°33' E 135°20'5 0.5
2015-Jan-21 22:50N 34°33' E 135°26'1 6.6
2015-Jan-21 22:45N 34°33' E 135°25'1 6.4
2015-Jan-21 22:33N 34°33' E 135°24'4 3.4
2015-Jan-21 21:28N 34°32' E 135°19'0 0.0
2015-Jan-21 19:18N 34°32' E 135°19'0 0.0
2015-Jan-21 18:20N 34°32' E 135°19'0 0.0
2015-Jan-21 17:31N 34°32' E 135°19'0 0.0
2015-Jan-21 16:08N 34°32' E 135°19'0 0.0
2015-Jan-21 09:33N 34°32' E 135°19'0 0.0
2015-Jan-21 08:23N 34°32' E 135°19'0 0.0
2015-Jan-21 07:27N 34°32' E 135°19'0 0.0
2015-Jan-21 06:33N 34°32' E 135°19'0 0.0
2015-Jan-21 05:16N 34°32' E 135°19'912.2
2015-Jan-21 04:33N 34°35' E 135°09'1513.2
2015-Jan-21 03:24N 34°38' E 134°51'232 6.6
2015-Jan-19 16:33N 35°03' E 139°32'1212.6
2015-Jan-19 15:33N 35°10' E 139°44'1111.5
2015-Jan-19 14:34N 35°21' E 139°42'  

Dump ship's entire track history